Time;durP1;ratioP1;P1;durP2;ratioP2;P2;SDS_P1;SDS_P2;PMS_P1;PMS_P2;Temp;Humidity;BMP_temperature;BMP_pressure;BME280_temperature;BME280_humidity;BME280_pressure;Samples;Min_cycle;Max_cycle;Signal;HPM_P1;HPM_P2
2023/12/17 00:01:09;;;;;;;;;;;0.90;99.90;;;;;;5064492;28;19956;-69
2023/12/17 00:03:37;;;;;;;;;;;0.90;99.90;;;;;;5064197;28;20233;-69
2023/12/17 00:06:04;;;;;;;;;;;0.90;99.90;;;;;;5064382;28;19921;-69
2023/12/17 00:08:30;;;;;;;;;;;0.90;99.90;;;;;;5064460;28;19959;-69
2023/12/17 00:10:58;;;;;;;;;;;0.90;99.90;;;;;;5064071;28;19920;-69
2023/12/17 00:13:25;;;;;;;;;;;0.90;99.90;;;;;;5063939;28;19983;-69
2023/12/17 00:15:52;;;;;;;;;;;0.90;99.90;;;;;;5064031;28;20210;-70
2023/12/17 00:18:18;;;;;;;;;;;0.90;99.90;;;;;;5063224;28;19921;-69
2023/12/17 00:20:46;;;;;;;;;;;0.90;99.90;;;;;;5064076;28;20228;-69
2023/12/17 00:23:13;;;;;;;;;;;0.90;99.90;;;;;;5064142;28;19988;-69
2023/12/17 00:25:40;;;;;;;;;;;1.00;99.90;;;;;;5063927;28;20113;-69
2023/12/17 00:28:06;;;;;;;;;;;0.90;99.90;;;;;;5064051;28;19967;-69
2023/12/17 00:30:33;;;;;;;;;;;0.90;99.90;;;;;;5063815;28;20125;-69
2023/12/17 00:32:59;;;;;;;;;;;0.90;99.90;;;;;;5063837;28;19920;-69
2023/12/17 00:35:26;;;;;;;;;;;0.90;99.90;;;;;;5063950;28;19956;-69
2023/12/17 00:37:54;;;;;;;;;;;0.90;99.90;;;;;;5064071;28;19927;-70
2023/12/17 00:40:21;;;;;;;;;;;0.80;99.90;;;;;;5063578;28;20229;-69
2023/12/17 00:42:47;;;;;;;;;;;0.80;99.90;;;;;;5063621;28;19920;-69
2023/12/17 00:45:14;;;;;;;;;;;0.80;99.90;;;;;;5063711;28;19991;-69
2023/12/17 00:47:40;;;;;;;;;;;0.80;99.90;;;;;;5063766;28;19956;-69
2023/12/17 00:50:07;;;;;;;;;;;0.80;99.90;;;;;;5063401;28;20252;-70
2023/12/17 00:52:34;;;;;;;;;;;0.80;99.90;;;;;;5063056;28;19984;-69
2023/12/17 00:55:02;;;;;;;;;;;0.80;99.90;;;;;;5063598;28;19983;-70
2023/12/17 00:57:29;;;;;;;;;;;0.80;99.90;;;;;;5055619;28;19920;-69
2023/12/17 00:59:56;;;;;;;;;;;0.70;99.90;;;;;;5063597;28;19956;-69
2023/12/17 01:02:22;;;;;;;;;;;0.70;99.90;;;;;;5063368;28;19929;-69
2023/12/17 01:04:49;;;;;;;;;;;0.70;99.90;;;;;;5063356;28;19920;-70
2023/12/17 01:07:16;;;;;;;;;;;0.70;99.90;;;;;;5063443;28;19920;-69
2023/12/17 01:09:42;;;;;;;;;;;0.70;99.90;;;;;;5063472;28;20052;-68
2023/12/17 01:12:10;;;;;;;;;;;0.70;99.90;;;;;;5063047;28;19956;-70
2023/12/17 01:14:37;;;;;;;;;;;0.70;99.90;;;;;;5063341;28;19952;-69
2023/12/17 01:17:04;;;;;;;;;;;0.70;99.90;;;;;;5063310;28;19943;-69
2023/12/17 01:19:30;;;;;;;;;;;0.70;99.90;;;;;;5063515;28;19983;-69
2023/12/17 01:21:57;;;;;;;;;;;0.60;99.90;;;;;;5063248;28;19988;-68
2023/12/17 01:24:24;;;;;;;;;;;0.60;99.90;;;;;;5063245;28;19980;-69
2023/12/17 01:26:51;;;;;;;;;;;0.60;99.90;;;;;;5062786;28;19971;-69
2023/12/17 01:29:19;;;;;;;;;;;0.60;99.90;;;;;;5066706;28;19920;-69
2023/12/17 01:31:45;;;;;;;;;;;0.60;99.90;;;;;;5069851;28;20174;-70
2023/12/17 01:34:12;;;;;;;;;;;0.60;99.90;;;;;;5069664;28;19921;-69
2023/12/17 01:36:38;;;;;;;;;;;0.60;99.90;;;;;;5069744;28;20238;-69
2023/12/17 01:39:05;;;;;;;;;;;0.60;99.90;;;;;;5069737;28;19921;-69
2023/12/17 01:41:31;;;;;;;;;;;0.60;99.90;;;;;;5069765;28;20088;-69
2023/12/17 01:43:58;;;;;;;;;;;0.50;99.90;;;;;;5069622;28;19956;-69
2023/12/17 01:46:27;;;;;;;;;;;0.50;99.90;;;;;;5069667;28;19967;-69
2023/12/17 01:48:53;;;;;;;;;;;0.50;99.90;;;;;;5069358;28;20514;-69
2023/12/17 01:51:20;;;;;;;;;;;0.50;99.90;;;;;;5069407;28;19984;-69
2023/12/17 01:53:47;;;;;;;;;;;0.50;99.90;;;;;;5069551;28;19983;-68
2023/12/17 01:56:14;;;;;;;;;;;0.50;99.90;;;;;;5069527;28;19991;-69
2023/12/17 01:58:41;;;;;;;;;;;0.50;99.90;;;;;;5069543;28;19988;-69
2023/12/17 02:01:07;;;;;;;;;;;0.50;99.90;;;;;;5069487;28;19967;-69
2023/12/17 02:03:35;;;;;;;;;;;0.40;99.90;;;;;;5069235;28;19963;-70
2023/12/17 02:06:02;;;;;;;;;;;0.40;99.90;;;;;;5069462;28;19991;-69
2023/12/17 02:08:29;;;;;;;;;;;0.40;99.90;;;;;;5069675;28;19959;-70
2023/12/17 02:10:55;;;;;;;;;;;0.40;99.90;;;;;;5069220;28;19927;-69
2023/12/17 02:13:22;;;;;;;;;;;0.40;99.90;;;;;;5069059;28;19929;-70
2023/12/17 02:15:48;;;;;;;;;;;0.40;99.90;;;;;;5069330;28;19921;-69
2023/12/17 02:18:15;;;;;;;;;;;0.40;99.90;;;;;;5067615;28;19927;-69
2023/12/17 02:20:44;;;;;;;;;;;0.40;99.90;;;;;;5063293;28;19921;-69
2023/12/17 02:23:12;;;;;;;;;;;0.40;99.90;;;;;;5069357;28;19928;-69
2023/12/17 02:25:39;;;;;;;;;;;0.40;99.90;;;;;;5069134;28;19985;-68
2023/12/17 02:28:06;;;;;;;;;;;0.30;99.90;;;;;;5069329;28;19959;-69
2023/12/17 02:30:32;;;;;;;;;;;0.40;99.90;;;;;;5069420;28;19952;-69
2023/12/17 02:32:59;;;;;;;;;;;0.40;99.90;;;;;;5068991;28;20221;-69
2023/12/17 02:35:26;;;;;;;;;;;0.40;99.90;;;;;;5069403;28;19921;-69
2023/12/17 02:37:52;;;;;;;;;;;0.40;99.90;;;;;;5068878;28;20234;-69
2023/12/17 02:40:20;;;;;;;;;;;0.40;99.90;;;;;;5067157;28;19921;-69
2023/12/17 02:42:47;;;;;;;;;;;0.40;99.90;;;;;;5065760;28;19952;-68
2023/12/17 02:45:14;;;;;;;;;;;0.50;99.90;;;;;;5066109;28;19989;-69
2023/12/17 02:47:40;;;;;;;;;;;0.40;99.90;;;;;;5065835;28;20100;-69
2023/12/17 02:50:07;;;;;;;;;;;0.40;99.90;;;;;;5065665;28;19956;-69
2023/12/17 02:52:34;;;;;;;;;;;0.50;99.90;;;;;;5066014;28;19920;-69
2023/12/17 02:55:00;;;;;;;;;;;0.50;99.90;;;;;;5066528;28;20237;-68
2023/12/17 02:57:29;;;;;;;;;;;0.50;99.90;;;;;;5066930;28;19921;-69
2023/12/17 02:59:56;;;;;;;;;;;0.40;99.90;;;;;;5065828;28;20138;-69
2023/12/17 03:02:22;;;;;;;;;;;0.40;99.90;;;;;;5065300;28;19991;-69
2023/12/17 03:04:49;;;;;;;;;;;0.40;99.90;;;;;;5065887;28;19987;-69
2023/12/17 03:07:15;;;;;;;;;;;0.40;99.90;;;;;;5065543;28;20004;-69
2023/12/17 03:09:42;;;;;;;;;;;0.40;99.90;;;;;;5065597;28;20087;-70
2023/12/17 03:12:08;;;;;;;;;;;0.40;99.90;;;;;;5065239;28;19987;-69
2023/12/17 03:14:36;;;;;;;;;;;0.30;99.90;;;;;;5065437;28;19920;-69
2023/12/17 03:17:03;;;;;;;;;;;0.40;99.90;;;;;;5065315;28;19983;-70
2023/12/17 03:19:30;;;;;;;;;;;0.40;99.90;;;;;;5065517;28;19988;-69
2023/12/17 03:21:56;;;;;;;;;;;0.30;99.90;;;;;;5065435;28;19921;-69
2023/12/17 03:24:23;;;;;;;;;;;0.30;99.90;;;;;;5065047;28;19992;-68
2023/12/17 03:26:50;;;;;;;;;;;0.30;99.90;;;;;;5064958;28;20211;-69
2023/12/17 03:29:16;;;;;;;;;;;0.30;99.90;;;;;;5065293;28;19920;-69
2023/12/17 03:31:44;;;;;;;;;;;0.30;99.90;;;;;;5064906;28;20277;-69
2023/12/17 03:34:11;;;;;;;;;;;0.30;99.90;;;;;;5064690;28;20000;-69
2023/12/17 03:36:38;;;;;;;;;;;0.30;99.90;;;;;;5065041;28;19927;-69
2023/12/17 03:39:05;;;;;;;;;;;0.20;99.90;;;;;;5064753;28;20264;-70
2023/12/17 03:41:32;;;;;;;;;;;0.20;99.90;;;;;;5061061;28;19921;-70
2023/12/17 03:43:58;;;;;;;;;;;0.20;99.90;;;;;;5060885;28;19991;-69
2023/12/17 03:46:26;;;;;;;;;;;0.20;99.90;;;;;;5064552;28;20183;-69
2023/12/17 03:48:54;;;;;;;;;;;0.20;99.90;;;;;;5064397;28;19988;-69
2023/12/17 03:51:21;;;;;;;;;;;0.20;99.90;;;;;;5064349;28;19920;-69
2023/12/17 03:53:47;;;;;;;;;;;0.20;99.90;;;;;;5064397;28;19999;-69
2023/12/17 03:56:16;;;;;;;;;;;0.20;99.90;;;;;;5064736;28;19921;-69
2023/12/17 03:58:42;;;;;;;;;;;0.20;99.90;;;;;;5064867;28;19952;-68
2023/12/17 04:01:09;;;;;;;;;;;0.20;99.90;;;;;;5064197;28;20206;-69
2023/12/17 04:03:37;;;;;;;;;;;0.20;99.90;;;;;;5064776;28;19988;-69
2023/12/17 04:06:06;;;;;;;;;;;0.20;99.90;;;;;;5064249;28;20365;-69
2023/12/17 04:08:32;;;;;;;;;;;0.10;99.90;;;;;;5064569;28;19984;-69
2023/12/17 04:10:59;;;;;;;;;;;0.10;99.90;;;;;;5064580;28;20181;-69
2023/12/17 04:13:26;;;;;;;;;;;0.10;99.90;;;;;;5064183;28;20416;-69
2023/12/17 04:15:52;;;;;;;;;;;0.10;99.90;;;;;;5064527;28;19920;-69
2023/12/17 04:18:19;;;;;;;;;;;0.10;99.90;;;;;;5064264;28;19921;-69
2023/12/17 04:20:45;;;;;;;;;;;0.10;99.90;;;;;;5064326;28;19942;-69
2023/12/17 04:23:13;;;;;;;;;;;0.10;99.90;;;;;;5063752;28;19921;-69
2023/12/17 04:25:40;;;;;;;;;;;0.10;99.90;;;;;;5063770;28;19980;-69
2023/12/17 04:28:06;;;;;;;;;;;0.10;99.90;;;;;;5063761;28;20228;-69
2023/12/17 04:30:33;;;;;;;;;;;0.10;99.90;;;;;;5063843;28;19921;-68
2023/12/17 04:33:00;;;;;;;;;;;0.10;99.90;;;;;;5063737;28;20210;-69
2023/12/17 04:35:26;;;;;;;;;;;0.10;99.90;;;;;;5063909;28;19924;-69
2023/12/17 04:37:53;;;;;;;;;;;0.10;99.90;;;;;;5063775;28;19924;-69
2023/12/17 04:40:21;;;;;;;;;;;0.10;99.90;;;;;;5063648;28;19927;-69
2023/12/17 04:42:48;;;;;;;;;;;0.10;99.90;;;;;;5063874;28;20139;-69
2023/12/17 04:45:14;;;;;;;;;;;0.10;99.90;;;;;;5063931;28;19921;-68
2023/12/17 04:47:41;;;;;;;;;;;0.00;99.90;;;;;;5063785;28;19942;-69
2023/12/17 04:50:08;;;;;;;;;;;0.00;99.90;;;;;;5063387;28;19920;-70
2023/12/17 04:52:35;;;;;;;;;;;0.00;99.90;;;;;;5063321;28;19956;-69
2023/12/17 04:55:02;;;;;;;;;;;0.00;99.90;;;;;;5063300;28;20122;-69
2023/12/17 04:57:30;;;;;;;;;;;0.00;99.90;;;;;;5055496;28;20252;-69
2023/12/17 05:00:00;;;;;;;;;;;0.00;99.90;;;;;;5063483;28;19988;-69
2023/12/17 05:02:27;;;;;;;;;;;0.00;99.90;;;;;;5063049;28;20206;-69
2023/12/17 05:04:54;;;;;;;;;;;0.00;99.90;;;;;;5055985;28;19957;-69
2023/12/17 05:07:20;;;;;;;;;;;0.00;99.90;;;;;;5062321;28;19983;-70
2023/12/17 05:09:47;;;;;;;;;;;0.00;99.90;;;;;;5063512;28;19921;-69
2023/12/17 05:12:13;;;;;;;;;;;0.00;99.90;;;;;;5063256;28;19992;-69
2023/12/17 05:14:41;;;;;;;;;;;0.00;99.90;;;;;;5063107;28;20254;-69
2023/12/17 05:17:08;;;;;;;;;;;0.10;99.90;;;;;;5063376;28;19956;-69
2023/12/17 05:19:35;;;;;;;;;;;0.10;99.90;;;;;;5063453;28;19984;-69
2023/12/17 05:22:01;;;;;;;;;;;0.00;99.90;;;;;;5063315;28;19996;-69
2023/12/17 05:24:28;;;;;;;;;;;0.00;99.90;;;;;;5063415;28;19983;-70
2023/12/17 05:26:55;;;;;;;;;;;0.00;99.90;;;;;;5063170;28;19960;-69
2023/12/17 05:29:21;;;;;;;;;;;0.00;99.90;;;;;;5063289;28;19983;-69
2023/12/17 05:31:49;;;;;;;;;;;0.00;99.90;;;;;;5063226;28;20106;-69
2023/12/17 05:34:16;;;;;;;;;;;0.00;99.90;;;;;;5063050;28;20121;-69
2023/12/17 05:36:43;;;;;;;;;;;0.00;99.90;;;;;;5063316;28;19952;-69
2023/12/17 05:39:10;;;;;;;;;;;-0.10;99.90;;;;;;5062749;28;19984;-69
2023/12/17 05:41:36;;;;;;;;;;;-0.10;99.90;;;;;;5063243;28;19984;-69
2023/12/17 05:44:03;;;;;;;;;;;-0.10;99.90;;;;;;5062705;28;20230;-68
2023/12/17 05:46:29;;;;;;;;;;;-0.20;99.90;;;;;;5063072;28;19980;-69
2023/12/17 05:48:57;;;;;;;;;;;-0.20;99.90;;;;;;5062700;28;19921;-68
2023/12/17 05:51:24;;;;;;;;;;;-0.20;99.90;;;;;;5062926;28;19956;-69
2023/12/17 05:53:51;;;;;;;;;;;-0.30;99.90;;;;;;5062818;28;19921;-70
2023/12/17 05:56:17;;;;;;;;;;;-0.30;99.90;;;;;;5062832;28;19956;-69
2023/12/17 05:58:45;;;;;;;;;;;-0.30;99.90;;;;;;5063087;28;19956;-69
2023/12/17 06:01:11;;;;;;;;;;;-0.30;99.90;;;;;;5062371;28;19928;-69
2023/12/17 06:03:38;;;;;;;;;;;-0.30;99.90;;;;;;5062643;28;19921;-68
2023/12/17 06:06:07;;;;;;;;;;;-0.30;99.90;;;;;;5059520;28;20229;-69
2023/12/17 06:08:34;;;;;;;;;;;-0.30;99.90;;;;;;5062771;28;19925;-69
2023/12/17 06:11:00;;;;;;;;;;;-0.30;99.90;;;;;;5062758;28;19957;-69
2023/12/17 06:13:27;;;;;;;;;;;-0.30;99.90;;;;;;5061983;28;19947;-69
2023/12/17 06:15:54;;;;;;;;;;;-0.30;99.90;;;;;;5063927;28;20099;-70
2023/12/17 06:18:20;;;;;;;;;;;-0.30;99.90;;;;;;5066615;28;19995;-69
2023/12/17 06:20:47;;;;;;;;;;;-0.30;99.90;;;;;;5066688;28;19920;-69
2023/12/17 06:23:15;;;;;;;;;;;-0.30;99.90;;;;;;5066453;28;19952;-69
2023/12/17 06:25:41;;;;;;;;;;;-0.30;99.90;;;;;;5066446;28;19960;-70
2023/12/17 06:28:08;;;;;;;;;;;-0.30;99.90;;;;;;5066232;28;20109;-69
2023/12/17 06:30:35;;;;;;;;;;;-0.30;99.90;;;;;;5066075;28;19924;-70
2023/12/17 06:33:01;;;;;;;;;;;-0.30;99.90;;;;;;5066247;28;19927;-70
2023/12/17 06:35:28;;;;;;;;;;;-0.30;99.90;;;;;;5058315;28;20165;-69
2023/12/17 06:37:55;;;;;;;;;;;-0.30;99.90;;;;;;5066141;28;19927;-69
2023/12/17 06:40:23;;;;;;;;;;;-0.30;99.90;;;;;;5065897;28;19959;-69
2023/12/17 06:42:50;;;;;;;;;;;-0.30;99.90;;;;;;5066209;28;19971;-69
2023/12/17 06:45:16;;;;;;;;;;;-0.40;99.90;;;;;;5065857;28;19983;-70
2023/12/17 06:47:45;;;;;;;;;;;-0.40;99.90;;;;;;5065678;28;19995;-68
2023/12/17 06:50:11;;;;;;;;;;;-0.40;99.90;;;;;;5065807;28;19952;-69
2023/12/17 06:52:38;;;;;;;;;;;-0.40;99.90;;;;;;5065566;28;19928;-69
2023/12/17 06:55:06;;;;;;;;;;;-0.40;99.90;;;;;;5065756;28;19927;-69
2023/12/17 06:57:34;;;;;;;;;;;-0.40;99.90;;;;;;5065716;28;19968;-68
2023/12/17 07:00:01;;;;;;;;;;;-0.40;99.90;;;;;;5065380;28;19952;-69
2023/12/17 07:02:27;;;;;;;;;;;-0.50;99.90;;;;;;5057660;28;20114;-70
2023/12/17 07:04:54;;;;;;;;;;;-0.50;99.90;;;;;;5065861;28;19921;-69
2023/12/17 07:07:21;;;;;;;;;;;-0.50;99.90;;;;;;5065356;28;19920;-69
2023/12/17 07:09:47;;;;;;;;;;;-0.50;99.90;;;;;;5065200;28;19929;-68
2023/12/17 07:12:14;;;;;;;;;;;-0.50;99.90;;;;;;5065049;28;19956;-69
2023/12/17 07:14:42;;;;;;;;;;;-0.50;99.90;;;;;;5056979;28;19921;-69
2023/12/17 07:17:08;;;;;;;;;;;-0.50;99.90;;;;;;5065408;28;19976;-68
2023/12/17 07:19:35;;;;;;;;;;;-0.50;99.90;;;;;;5065495;28;19956;-70
2023/12/17 07:22:02;;;;;;;;;;;-0.50;99.90;;;;;;5064886;28;19927;-69
2023/12/17 07:24:28;;;;;;;;;;;-0.50;99.90;;;;;;5057311;28;19983;-69
2023/12/17 07:26:55;;;;;;;;;;;-0.50;99.90;;;;;;5064656;28;19921;-69
2023/12/17 07:29:21;;;;;;;;;;;-0.50;99.90;;;;;;5065368;28;20121;-68
2023/12/17 07:31:49;;;;;;;;;;;-0.50;99.90;;;;;;5065240;28;19920;-69
2023/12/17 07:34:16;;;;;;;;;;;-0.50;99.90;;;;;;5064904;28;19979;-68
2023/12/17 07:36:43;;;;;;;;;;;-0.50;99.90;;;;;;5065272;28;19956;-69
2023/12/17 07:39:09;;;;;;;;;;;-0.50;99.90;;;;;;5065081;28;19927;-69
2023/12/17 07:41:36;;;;;;;;;;;-0.50;99.90;;;;;;5064846;28;19927;-68
2023/12/17 07:44:02;;;;;;;;;;;-0.50;99.90;;;;;;5064902;28;19921;-69
2023/12/17 07:46:29;;;;;;;;;;;-0.40;99.90;;;;;;5064639;28;19952;-69
2023/12/17 07:48:57;;;;;;;;;;;-0.40;99.90;;;;;;5064824;28;19921;-69
2023/12/17 07:51:23;;;;;;;;;;;-0.30;99.90;;;;;;5061754;28;19961;-69
2023/12/17 07:53:50;;;;;;;;;;;-0.30;99.90;;;;;;5061538;28;19920;-69
2023/12/17 07:56:17;;;;;;;;;;;-0.30;99.90;;;;;;5064633;28;19925;-69
2023/12/17 07:58:44;;;;;;;;;;;-0.30;99.90;;;;;;5064434;28;19921;-69
2023/12/17 08:01:10;;;;;;;;;;;-0.30;99.90;;;;;;5064627;28;19921;-69
2023/12/17 08:03:37;;;;;;;;;;;-0.30;99.90;;;;;;5064539;28;20117;-69
2023/12/17 08:06:06;;;;;;;;;;;-0.30;99.90;;;;;;5064856;28;19921;-69
2023/12/17 08:08:33;;;;;;;;;;;-0.30;99.90;;;;;;5064400;28;20197;-70
2023/12/17 08:10:59;;;;;;;;;;;-0.30;99.90;;;;;;5061464;28;19968;-69
2023/12/17 08:13:26;;;;;;;;;;;-0.30;99.90;;;;;;5063998;28;19979;-69
2023/12/17 08:15:54;;;;;;;;;;;-0.20;99.90;;;;;;5064569;28;20110;-69
2023/12/17 08:18:21;;;;;;;;;;;-0.20;99.90;;;;;;5064322;28;19927;-69
2023/12/17 08:20:48;;;;;;;;;;;-0.20;99.90;;;;;;5064267;28;19952;-69
2023/12/17 08:23:16;;;;;;;;;;;-0.10;99.90;;;;;;5064156;28;19927;-70
2023/12/17 08:25:43;;;;;;;;;;;-0.10;99.90;;;;;;5064074;28;19921;-69
2023/12/17 08:28:09;;;;;;;;;;;-0.10;99.90;;;;;;5064067;28;20174;-70
2023/12/17 08:30:38;;;;;;;;;;;-0.10;99.90;;;;;;5064151;28;19986;-68
2023/12/17 08:33:05;;;;;;;;;;;0.00;99.90;;;;;;5063610;28;19963;-69
2023/12/17 08:35:32;;;;;;;;;;;0.00;99.90;;;;;;5064036;28;19921;-69
2023/12/17 08:38:03;;;;;;;;;;;0.00;99.90;;;;;;5063393;28;19921;-69
2023/12/17 08:40:31;;;;;;;;;;;0.10;99.90;;;;;;5063631;28;20143;-69
2023/12/17 08:42:58;;;;;;;;;;;0.10;99.90;;;;;;5063597;28;20181;-69
2023/12/17 08:45:24;;;;;;;;;;;0.20;99.90;;;;;;5063747;28;19927;-69
2023/12/17 08:47:51;;;;;;;;;;;0.20;99.90;;;;;;5054227;28;19930;-68
2023/12/17 08:50:18;;;;;;;;;;;0.20;99.90;;;;;;5061667;28;19986;-68
2023/12/17 08:52:44;;;;;;;;;;;0.30;99.90;;;;;;5062857;28;19927;-69
2023/12/17 08:55:11;;;;;;;;;;;0.30;99.90;;;;;;5063467;28;19948;-69
2023/12/17 08:57:39;;;;;;;;;;;0.40;99.90;;;;;;5047977;28;19928;-69
2023/12/17 09:00:06;;;;;;;;;;;0.50;99.90;;;;;;5063220;28;19952;-69
2023/12/17 09:02:34;;;;;;;;;;;0.50;99.90;;;;;;5062889;28;19991;-70
2023/12/17 09:05:01;;;;;;;;;;;0.50;99.90;;;;;;5063100;28;19983;-69
2023/12/17 09:07:27;;;;;;;;;;;0.60;99.90;;;;;;5062861;28;19921;-69
2023/12/17 09:09:54;;;;;;;;;;;0.60;99.90;;;;;;5063312;28;19992;-69
2023/12/17 09:12:21;;;;;;;;;;;0.70;99.90;;;;;;5062646;28;20226;-69
2023/12/17 09:14:49;;;;;;;;;;;0.70;99.90;;;;;;5056674;28;19921;-69
2023/12/17 09:17:16;;;;;;;;;;;0.80;99.90;;;;;;5061216;28;20230;-70
2023/12/17 09:19:42;;;;;;;;;;;0.90;99.90;;;;;;5063341;28;19952;-70
2023/12/17 09:22:09;;;;;;;;;;;0.90;99.90;;;;;;5062442;28;19929;-70
2023/12/17 09:24:36;;;;;;;;;;;0.90;99.90;;;;;;5063057;28;19924;-70
2023/12/17 09:27:03;;;;;;;;;;;1.00;99.90;;;;;;5063017;28;19927;-71
2023/12/17 09:29:29;;;;;;;;;;;1.10;99.90;;;;;;5062969;28;19924;-70
2023/12/17 09:31:57;;;;;;;;;;;1.10;99.90;;;;;;5063219;28;19959;-70
2023/12/17 09:34:24;;;;;;;;;;;1.20;99.90;;;;;;5063044;28;19920;-70
2023/12/17 09:36:51;;;;;;;;;;;1.20;99.90;;;;;;5063371;28;19920;-70
2023/12/17 09:39:17;;;;;;;;;;;1.20;99.90;;;;;;5063145;28;19987;-70
2023/12/17 09:41:44;;;;;;;;;;;1.30;99.90;;;;;;5062645;28;20135;-70
2023/12/17 09:44:11;;;;;;;;;;;1.40;99.90;;;;;;5062774;28;20271;-70
2023/12/17 09:46:38;;;;;;;;;;;1.40;99.90;;;;;;5062871;28;19925;-71
2023/12/17 09:49:06;;;;;;;;;;;1.50;99.90;;;;;;5062860;28;19956;-71
2023/12/17 09:51:37;;;;;;;;;;;1.60;99.90;;;;;;5066893;28;19962;-70
2023/12/17 09:54:04;;;;;;;;;;;1.70;99.90;;;;;;5066081;28;19994;-70
2023/12/17 09:56:31;;;;;;;;;;;1.90;99.90;;;;;;5066593;28;19959;-70
2023/12/17 09:58:57;;;;;;;;;;;2.00;99.90;;;;;;5060617;28;19995;-70
2023/12/17 10:01:24;;;;;;;;;;;2.00;99.90;;;;;;5060422;28;19920;-71
2023/12/17 10:03:51;;;;;;;;;;;2.00;99.90;;;;;;5066865;28;19952;-71
2023/12/17 10:06:20;;;;;;;;;;;2.10;99.90;;;;;;5061142;28;19956;-70
2023/12/17 10:08:47;;;;;;;;;;;2.20;99.90;;;;;;5061295;28;20098;-71
2023/12/17 10:11:14;;;;;;;;;;;2.30;99.90;;;;;;5066397;28;19983;-70
2023/12/17 10:13:41;;;;;;;;;;;2.30;99.90;;;;;;5066169;28;20276;-70
2023/12/17 10:16:08;;;;;;;;;;;2.40;99.90;;;;;;5066641;28;19987;-70
2023/12/17 10:18:34;;;;;;;;;;;2.50;99.90;;;;;;5066291;28;20151;-70
2023/12/17 10:21:04;;;;;;;;;;;2.60;99.90;;;;;;5048810;28;19989;-70
2023/12/17 10:23:45;;;;;;;;;;;2.80;99.90;;;;;;5057750;28;19921;-70
2023/12/17 10:26:12;;;;;;;;;;;2.90;99.90;;;;;;5064220;28;19963;-70
2023/12/17 10:28:39;;;;;;;;;;;3.00;99.90;;;;;;5066128;28;19920;-70
2023/12/17 10:31:08;;;;;;;;;;;3.10;99.90;;;;;;5062674;28;19979;-71
2023/12/17 10:33:36;;;;;;;;;;;3.20;99.90;;;;;;5065183;28;19932;-70
2023/12/17 10:36:04;;;;;;;;;;;3.30;99.90;;;;;;5060206;28;19921;-71
2023/12/17 10:38:31;;;;;;;;;;;3.40;99.90;;;;;;5062969;28;20099;-70
2023/12/17 10:41:00;;;;;;;;;;;3.60;99.90;;;;;;5062490;28;19960;-70
2023/12/17 10:43:28;;;;;;;;;;;3.90;99.90;;;;;;5057797;28;19985;-71
2023/12/17 10:45:55;;;;;;;;;;;4.10;99.90;;;;;;5055641;28;20122;-70
2023/12/17 10:48:21;;;;;;;;;;;4.30;99.90;;;;;;5050881;28;20363;-68
2023/12/17 10:50:49;;;;;;;;;;;4.50;99.90;;;;;;5057598;28;19996;-69
2023/12/17 10:53:16;;;;;;;;;;;4.70;99.90;;;;;;5059677;28;20175;-69
2023/12/17 10:55:43;;;;;;;;;;;4.90;99.90;;;;;;5060339;28;19936;-69
2023/12/17 10:58:14;;;;;;;;;;;5.10;99.90;;;;;;5058025;28;19984;-69
2023/12/17 11:00:41;;;;;;;;;;;5.20;99.90;;;;;;5065168;28;19928;-70
2023/12/17 11:03:08;;;;;;;;;;;5.30;99.90;;;;;;5059981;28;20242;-70
2023/12/17 11:05:35;;;;;;;;;;;5.50;99.90;;;;;;5063049;28;19984;-70
2023/12/17 11:08:01;;;;;;;;;;;5.70;99.90;;;;;;5064083;28;19960;-70
2023/12/17 11:10:29;;;;;;;;;;;5.80;99.90;;;;;;5056830;28;19956;-69
2023/12/17 11:12:56;;;;;;;;;;;6.00;99.90;;;;;;5059986;28;19967;-69
2023/12/17 11:15:25;;;;;;;;;;;6.10;99.90;;;;;;5064076;28;19950;-70
2023/12/17 11:17:52;;;;;;;;;;;6.20;99.90;;;;;;5056517;28;19920;-69
2023/12/17 11:20:19;;;;;;;;;;;6.30;99.90;;;;;;5063706;28;20179;-70
2023/12/17 11:22:46;;;;;;;;;;;6.40;99.90;;;;;;5053487;28;19927;-69
2023/12/17 11:25:13;;;;;;;;;;;6.50;99.90;;;;;;5058316;28;19929;-69
2023/12/17 11:27:40;;;;;;;;;;;6.60;99.90;;;;;;5054866;28;19921;-70
2023/12/17 11:30:26;;;;;;;;;;;6.70;99.90;;;;;;5061597;28;20024;-70
2023/12/17 11:32:54;;;;;;;;;;;6.70;99.90;;;;;;5055135;28;20145;-69
2023/12/17 11:35:21;;;;;;;;;;;6.80;99.90;;;;;;5062011;28;19980;-70
2023/12/17 11:37:48;;;;;;;;;;;6.90;99.90;;;;;;5064658;28;19927;-70
2023/12/17 11:40:15;;;;;;;;;;;6.90;99.90;;;;;;5061967;28;20290;-70
2023/12/17 11:42:41;;;;;;;;;;;7.00;99.90;;;;;;5059485;28;20268;-69
2023/12/17 11:45:08;;;;;;;;;;;7.10;99.90;;;;;;5064589;28;19928;-70
2023/12/17 11:47:35;;;;;;;;;;;7.20;99.90;;;;;;5061922;28;19956;-71
2023/12/17 11:50:03;;;;;;;;;;;7.20;99.90;;;;;;5058749;28;21068;-70
2023/12/17 11:52:30;;;;;;;;;;;7.40;99.90;;;;;;5058764;28;19933;-70
2023/12/17 11:55:01;;;;;;;;;;;7.50;99.90;;;;;;5058310;28;19928;-69
2023/12/17 11:57:28;;;;;;;;;;;7.60;99.90;;;;;;5055979;28;19927;-70
2023/12/17 11:59:55;;;;;;;;;;;7.70;99.90;;;;;;5055272;28;19967;-69
2023/12/17 12:02:22;;;;;;;;;;;7.80;99.90;;;;;;5059254;28;20253;-69
2023/12/17 12:04:50;;;;;;;;;;;7.80;99.90;;;;;;5057852;28;19979;-69
2023/12/17 12:07:18;;;;;;;;;;;7.90;99.90;;;;;;5064007;28;20268;-71
2023/12/17 12:09:45;;;;;;;;;;;8.00;99.90;;;;;;5059939;28;19980;-70
2023/12/17 12:12:18;;;;;;;;;;;8.10;99.90;;;;;;5054815;28;19921;-70
2023/12/17 12:14:45;;;;;;;;;;;8.20;99.90;;;;;;5063950;28;19999;-70
2023/12/17 12:17:30;;;;;;;;;;;8.30;99.90;;;;;;5057504;28;19967;-71
2023/12/17 12:19:57;;;;;;;;;;;8.40;99.90;;;;;;5056718;28;19988;-71
2023/12/17 12:22:28;;;;;;;;;;;8.60;99.90;;;;;;5062983;28;19938;-71
2023/12/17 12:24:55;;;;;;;;;;;8.60;99.90;;;;;;5057261;28;19921;-71
2023/12/17 12:27:22;;;;;;;;;;;8.60;99.90;;;;;;5056334;28;19998;-70
2023/12/17 12:29:49;;;;;;;;;;;8.80;99.90;;;;;;5060498;28;19980;-71
2023/12/17 12:32:25;;;;;;;;;;;8.90;99.90;;;;;;5058120;28;19983;-71
2023/12/17 12:34:53;;;;;;;;;;;9.00;99.90;;;;;;5054317;28;19979;-68
2023/12/17 12:37:32;;;;;;;;;;;9.10;99.90;;;;;;5062760;28;20709;-71
2023/12/17 12:39:58;;;;;;;;;;;9.20;99.90;;;;;;5051205;28;20494;-72
2023/12/17 12:42:25;;;;;;;;;;;9.30;99.90;;;;;;5057648;28;19927;-71
2023/12/17 12:44:52;;;;;;;;;;;9.30;99.90;;;;;;5057482;28;19952;-71
2023/12/17 12:47:20;;;;;;;;;;;9.40;99.90;;;;;;5063749;28;19956;-70
2023/12/17 12:49:47;;;;;;;;;;;9.40;99.90;;;;;;5055035;28;19928;-71
2023/12/17 12:52:13;;;;;;;;;;;9.40;99.90;;;;;;5056158;28;19921;-70
2023/12/17 12:54:42;;;;;;;;;;;9.40;99.90;;;;;;5059731;28;19985;-71
2023/12/17 12:57:08;;;;;;;;;;;9.40;99.90;;;;;;5060931;28;19920;-71
2023/12/17 12:59:35;;;;;;;;;;;9.50;99.90;;;;;;5063587;28;20169;-70
2023/12/17 13:02:02;;;;;;;;;;;9.50;99.90;;;;;;5063152;28;19927;-71
2023/12/17 13:04:28;;;;;;;;;;;9.60;99.90;;;;;;5062227;28;20348;-70
2023/12/17 13:06:55;;;;;;;;;;;9.70;99.90;;;;;;5058980;28;19952;-71
2023/12/17 13:09:21;;;;;;;;;;;9.70;99.90;;;;;;5059340;28;19927;-71
2023/12/17 13:11:49;;;;;;;;;;;9.70;99.90;;;;;;5063322;28;19956;-71
2023/12/17 13:14:17;;;;;;;;;;;9.70;99.90;;;;;;5062890;28;20249;-71
2023/12/17 13:16:43;;;;;;;;;;;9.50;99.90;;;;;;5063306;28;19928;-71
2023/12/17 13:19:10;;;;;;;;;;;9.40;99.90;;;;;;5056375;28;19921;-71
2023/12/17 13:21:37;;;;;;;;;;;9.30;99.90;;;;;;5061286;28;20099;-71
2023/12/17 13:24:03;;;;;;;;;;;9.10;99.90;;;;;;5061240;28;20238;-72
2023/12/17 13:26:30;;;;;;;;;;;8.90;99.90;;;;;;5062392;28;19921;-71
2023/12/17 13:28:58;;;;;;;;;;;8.70;99.90;;;;;;5059013;28;19921;-71
2023/12/17 13:31:25;;;;;;;;;;;8.60;99.90;;;;;;5063076;28;19963;-70
2023/12/17 13:33:52;;;;;;;;;;;8.40;99.90;;;;;;5058170;28;19955;-70
2023/12/17 13:36:20;;;;;;;;;;;8.30;99.90;;;;;;5062971;28;19921;-70
2023/12/17 13:38:46;;;;;;;;;;;8.20;99.90;;;;;;5062934;28;19928;-70
2023/12/17 13:41:13;;;;;;;;;;;8.10;99.90;;;;;;5062757;28;19927;-71
2023/12/17 13:43:39;;;;;;;;;;;8.00;99.90;;;;;;5062803;28;19963;-71
2023/12/17 13:46:07;;;;;;;;;;;7.90;99.90;;;;;;5062902;28;19917;-70
2023/12/17 13:48:33;;;;;;;;;;;7.90;99.90;;;;;;5063386;28;19984;-71
2023/12/17 13:51:00;;;;;;;;;;;7.80;99.90;;;;;;5059264;28;19921;-71
2023/12/17 13:53:27;;;;;;;;;;;7.80;99.90;;;;;;5062265;28;19924;-71
2023/12/17 13:55:53;;;;;;;;;;;7.70;99.90;;;;;;5062852;28;19984;-70
2023/12/17 13:58:21;;;;;;;;;;;7.60;99.90;;;;;;5062713;28;20172;-70
2023/12/17 14:00:48;;;;;;;;;;;7.60;99.90;;;;;;5062657;28;19928;-70
2023/12/17 14:03:16;;;;;;;;;;;7.50;99.90;;;;;;5062608;28;19921;-70
2023/12/17 14:05:43;;;;;;;;;;;7.40;99.90;;;;;;5061612;28;19921;-71
2023/12/17 14:08:09;;;;;;;;;;;7.40;99.90;;;;;;5061974;28;19979;-71
2023/12/17 14:10:36;;;;;;;;;;;7.40;99.90;;;;;;5059023;28;19925;-71
2023/12/17 14:13:03;;;;;;;;;;;7.40;99.90;;;;;;5058783;28;19921;-71
2023/12/17 14:15:29;;;;;;;;;;;7.30;99.90;;;;;;5057635;28;19921;-71
2023/12/17 14:17:56;;;;;;;;;;;7.20;99.90;;;;;;5062408;28;19948;-70
2023/12/17 14:20:24;;;;;;;;;;;7.20;99.90;;;;;;5061579;28;20274;-70
2023/12/17 14:22:50;;;;;;;;;;;7.10;99.90;;;;;;5061978;28;19991;-71
2023/12/17 14:25:17;;;;;;;;;;;7.00;99.90;;;;;;5051753;28;19929;-70
2023/12/17 14:27:44;;;;;;;;;;;7.00;99.90;;;;;;5049391;28;20245;-70